Time;durP1;ratioP1;P1;durP2;ratioP2;P2;SDS_P1;SDS_P2;PMS_P1;PMS_P2;Temp;Humidity;BMP_temperature;BMP_pressure;BME280_temperature;BME280_humidity;BME280_pressure;Samples;Min_cycle;Max_cycle;Signal;HPM_P1;HPM_P2
2022/06/27 00:00:25;;;;;;;0.93;0.90;;;;;;;23.52;64.95;95683.00;5030765;28;20690;-72
2022/06/27 00:02:51;;;;;;;0.85;0.80;;;;;;;23.23;65.74;95688.38;5030438;28;20204;-72
2022/06/27 00:05:18;;;;;;;0.70;0.70;;;;;;;23.15;65.68;95695.06;5030100;28;20209;-72
2022/06/27 00:07:46;;;;;;;1.20;0.80;;;;;;;23.15;63.79;95700.44;5030757;28;20209;-72
2022/06/27 00:10:13;;;;;;;1.40;1.00;;;;;;;23.12;65.60;95702.88;5030633;28;20209;-72
2022/06/27 00:12:40;;;;;;;2.50;0.80;;;;;;;23.00;65.92;95699.63;5030147;28;20222;-71
2022/06/27 00:15:10;;;;;;;4.45;1.00;;;;;;;22.92;66.90;95717.03;5030713;28;20212;-71
2022/06/27 00:17:36;;;;;;;1.10;1.00;;;;;;;22.64;67.44;95727.44;5030673;28;20765;-71
2022/06/27 00:20:04;;;;;;;1.00;0.90;;;;;;;22.67;66.80;95744.91;5028934;28;20224;-72
2022/06/27 00:22:30;;;;;;;4.05;1.20;;;;;;;22.62;67.56;95745.72;5030093;28;20202;-71
2022/06/27 00:24:59;;;;;;;2.45;1.00;;;;;;;22.76;67.40;95741.47;5030126;28;20697;-72
2022/06/27 00:27:25;;;;;;;2.60;1.00;;;;;;;22.53;71.01;95749.97;5030541;28;20292;-71
2022/06/27 00:29:52;;;;;;;1.20;0.90;;;;;;;22.68;69.65;95760.75;5030455;28;20213;-72
2022/06/27 00:32:19;;;;;;;1.55;1.00;;;;;;;22.39;70.30;95756.06;5029971;28;20715;-72
2022/06/27 00:34:45;;;;;;;1.40;0.80;;;;;;;22.36;69.29;95767.34;5030045;28;20335;-72
2022/06/27 00:37:12;;;;;;;1.67;1.00;;;;;;;22.25;71.98;95777.19;5030106;28;20209;-72
2022/06/27 00:39:38;;;;;;;2.38;0.88;;;;;;;21.96;74.06;95787.72;5029978;28;20217;-71
2022/06/27 00:42:07;;;;;;;1.75;0.95;;;;;;;21.98;75.94;95801.69;5030208;28;20592;-72
2022/06/27 00:44:35;;;;;;;1.40;1.30;;;;;;;21.77;78.83;95821.38;5029649;28;20775;-72
2022/06/27 00:47:02;;;;;;;1.40;1.30;;;;;;;21.76;81.13;95854.63;5030312;28;20209;-72
2022/06/27 00:49:29;;;;;;;1.90;1.63;;;;;;;21.76;81.38;95873.41;5029949;28;20194;-72
2022/06/27 00:51:56;;;;;;;3.97;2.10;;;;;;;21.68;82.62;95895.34;5030064;28;20202;-72
2022/06/27 00:54:23;;;;;;;2.90;1.65;;;;;;;21.56;83.17;95926.84;5029969;28;20217;-72
2022/06/27 00:56:50;;;;;;;2.92;1.80;;;;;;;21.64;83.55;95940.63;5030073;28;20214;-72
2022/06/27 00:59:18;;;;;;;2.05;1.70;;;;;;;21.47;84.89;95976.56;5029559;28;20209;-71
2022/06/27 01:01:45;;;;;;;2.20;2.00;;;;;;;21.23;86.10;96007.38;5030006;28;20571;-71
2022/06/27 01:04:11;;;;;;;1.80;1.65;;;;;;;21.13;85.66;96043.94;5029306;28;20245;-71
2022/06/27 01:06:38;;;;;;;4.30;1.60;;;;;;;21.18;84.84;96068.97;5030012;28;20575;-71
2022/06/27 01:09:05;;;;;;;4.55;1.70;;;;;;;21.27;84.84;96096.13;5030059;28;20204;-71
2022/06/27 01:11:32;;;;;;;2.28;1.40;;;;;;;21.28;85.32;96098.56;5032213;28;20198;-72
2022/06/27 01:13:59;;;;;;;2.40;1.90;;;;;;;21.25;88.12;96107.09;5031765;28;20597;-71
2022/06/27 01:16:27;;;;;;;6.78;2.17;;;;;;;21.30;91.48;96090.31;5031131;28;20301;-71
2022/06/27 01:18:54;;;;;;;3.20;2.47;;;;;;;20.93;95.51;96116.78;5030531;28;20193;-70
2022/06/27 01:21:24;;;;;;;4.72;2.85;;;;;;;21.00;98.16;96082.63;5031781;28;20297;-71
2022/06/27 01:23:53;;;;;;;3.45;2.92;;;;;;;20.88;100.00;96079.19;5031596;28;20225;-71
2022/06/27 01:26:21;;;;;;;6.15;3.83;;;;;;;20.88;100.00;96079.19;5030893;28;20210;-72
2022/06/27 01:28:48;;;;;;;7.25;3.17;;;;;;;20.42;100.00;96057.25;5030409;28;20215;-71
2022/06/27 01:31:16;;;;;;;4.82;3.25;;;;;;;20.33;100.00;95999.00;5031000;28;20204;-70
2022/06/27 01:33:43;;;;;;;4.90;3.47;;;;;;;20.15;100.00;95960.94;5029815;28;20217;-71
2022/06/27 01:38:56;;;;;;;3.38;2.60;;;;;;;20.27;100.00;96008.00;5031049;28;20248;-71
2022/06/27 01:41:23;;;;;;;1.60;1.45;;;;;;;20.08;100.00;96022.66;5030731;28;20212;-71
2022/06/27 01:43:50;;;;;;;2.88;2.33;;;;;;;20.20;100.00;96020.72;5029927;28;20234;-72
2022/06/27 01:46:17;;;;;;;3.22;2.53;;;;;;;20.06;100.00;96011.38;5031332;28;20208;-71
2022/06/27 01:48:43;;;;;;;2.42;1.77;;;;;;;20.14;100.00;96011.00;5031146;28;20202;-72
2022/06/27 01:51:11;;;;;;;4.28;1.90;;;;;;;20.09;100.00;96007.41;5030532;28;20202;-72
2022/06/27 01:53:38;;;;;;;2.10;1.70;;;;;;;20.09;100.00;96013.56;5029357;28;20757;-72
2022/06/27 01:56:06;;;;;;;2.00;1.50;;;;;;;20.22;100.00;96006.03;5029252;28;20190;-71
2022/06/27 01:58:34;;;;;;;2.22;1.17;;;;;;;20.17;100.00;95999.78;5029384;28;20205;-72
2022/06/27 02:01:01;;;;;;;2.03;1.20;;;;;;;20.32;100.00;95994.72;5029695;28;20828;-72
2022/06/27 02:03:27;;;;;;;5.13;1.60;;;;;;;20.09;100.00;96002.88;5030936;28;20408;-72
2022/06/27 02:05:56;;;;;;;1.63;1.17;;;;;;;20.02;100.00;95991.53;5030681;28;20572;-73
2022/06/27 02:08:23;;;;;;;3.70;0.90;;;;;;;20.03;100.00;96014.53;5032945;28;20208;-72
2022/06/27 02:10:50;;;;;;;1.20;1.10;;;;;;;20.09;100.00;96000.19;5032076;28;20198;-72
2022/06/27 02:13:18;;;;;;;3.95;1.00;;;;;;;20.18;100.00;96012.91;5032212;28;20222;-72
2022/06/27 02:16:03;;;;;;;3.03;0.80;;;;;;;20.24;100.00;96005.81;5031546;28;20210;-73
2022/06/27 02:18:30;;;;;;;1.73;0.98;;;;;;;20.16;100.00;96010.75;5030559;28;20279;-72
2022/06/27 02:20:57;;;;;;;0.95;0.80;;;;;;;20.21;100.00;96003.59;5030945;28;20692;-72
2022/06/27 02:23:24;;;;;;;2.92;0.77;;;;;;;20.12;100.00;96007.72;5031905;28;20228;-72
2022/06/27 02:25:51;;;;;;;0.73;0.73;;;;;;;20.18;100.00;96005.97;5031945;28;20229;-72
2022/06/27 02:28:21;;;;;;;1.10;0.90;;;;;;;20.43;99.46;95999.97;5035510;28;20202;-72
2022/06/27 02:30:47;;;;;;;0.70;0.70;;;;;;;20.23;99.68;95998.84;5036238;28;20234;-72
2022/06/27 02:33:14;;;;;;;0.50;0.50;;;;;;;20.07;99.34;95999.59;5035792;28;20217;-73
2022/06/27 02:35:41;;;;;;;1.10;0.70;;;;;;;20.25;99.02;96008.25;5036119;28;20198;-72
2022/06/27 02:38:10;;;;;;;1.50;0.75;;;;;;;20.23;98.90;96004.19;5035838;28;20842;-72
2022/06/27 02:40:38;;;;;;;2.45;0.75;;;;;;;20.31;98.50;96006.47;5035779;28;20209;-72
2022/06/27 02:43:07;;;;;;;2.95;0.57;;;;;;;20.42;98.17;95997.56;5035744;28;20228;-72
2022/06/27 02:45:36;;;;;;;0.70;0.60;;;;;;;20.69;96.85;95993.16;5035243;28;20217;-72
2022/06/27 02:48:04;;;;;;;0.70;0.50;;;;;;;20.56;95.42;95993.50;5036031;28;20688;-73
2022/06/27 02:50:33;;;;;;;2.00;0.65;;;;;;;20.46;95.40;95977.28;5035397;28;20209;-72
2022/06/27 02:53:10;;;;;;;0.55;0.50;;;;;;;20.61;95.80;95975.63;5036139;28;20198;-73
2022/06/27 02:55:40;;;;;;;1.20;0.40;;;;;;;20.47;94.96;95990.41;5036210;28;20194;-73
2022/06/27 02:58:11;;;;;;;0.98;0.68;;;;;;;20.55;94.93;95992.66;5035512;28;20201;-72
2022/06/27 03:00:41;;;;;;;0.85;0.70;;;;;;;20.69;94.77;95987.81;5035541;28;20617;-72
2022/06/27 03:03:08;;;;;;;0.90;0.60;;;;;;;20.45;94.33;95987.16;5034819;28;20228;-72
2022/06/27 03:05:34;;;;;;;0.90;0.60;;;;;;;20.61;94.54;95990.88;5035737;28;20616;-73
2022/06/27 03:08:01;;;;;;;0.90;0.50;;;;;;;20.65;94.18;95987.47;5035297;28;20204;-72
2022/06/27 03:10:28;;;;;;;1.75;0.50;;;;;;;20.50;94.91;95991.78;5035473;28;20198;-72
2022/06/27 03:17:58;;;;;;;1.48;0.52;;;;;;;20.44;94.86;95984.72;5050476;28;20495;-72
2022/06/27 03:20:25;;;;;;;2.20;0.40;;;;;;;20.26;95.43;95993.00;5050379;28;20197;-71
2022/06/27 03:22:51;;;;;;;0.45;0.45;;;;;;;20.18;96.91;96010.25;5051521;28;20242;-73
2022/06/27 03:25:18;;;;;;;0.50;0.50;;;;;;;20.23;98.22;96014.88;5051884;28;20236;-71
2022/06/27 03:27:44;;;;;;;2.50;1.10;;;;;;;20.30;96.18;96027.06;5051291;28;20587;-71
2022/06/27 03:30:12;;;;;;;0.57;0.52;;;;;;;20.26;97.29;96030.47;5051958;28;20208;-71
2022/06/27 03:32:38;;;;;;;1.42;0.70;;;;;;;20.42;97.72;96027.00;5050594;28;20201;-72
2022/06/27 03:35:07;;;;;;;1.90;0.70;;;;;;;20.48;96.94;96034.88;5051175;28;20584;-72
2022/06/27 03:37:35;;;;;;;0.93;0.65;;;;;;;20.60;94.65;96048.19;5051525;28;20201;-70
2022/06/27 03:40:02;;;;;;;2.30;0.60;;;;;;;20.41;94.22;96044.09;5050669;28;20306;-69
2022/06/27 03:42:28;;;;;;;1.33;0.80;;;;;;;19.94;94.41;96045.38;5050483;28;20233;-71
2022/06/27 03:44:55;;;;;;;1.25;0.75;;;;;;;19.86;94.84;96043.06;5050958;28;20225;-72
2022/06/27 03:47:21;;;;;;;7.80;0.85;;;;;;;19.84;95.41;96039.81;5050663;28;20209;-70
2022/06/27 03:50:02;;;;;;;1.58;0.70;;;;;;;19.60;96.45;96051.66;5050858;28;20557;-72
2022/06/27 03:52:30;;;;;;;0.93;0.60;;;;;;;19.88;95.57;96042.81;5050590;28;20545;-72
2022/06/27 03:54:57;;;;;;;2.58;0.80;;;;;;;19.84;97.21;96052.38;5050609;28;20582;-72
2022/06/27 03:57:23;;;;;;;1.15;0.70;;;;;;;19.67;97.92;96041.63;5050447;28;20201;-72
2022/06/27 03:59:50;;;;;;;2.40;0.68;;;;;;;19.55;97.73;96048.03;5050615;28;20209;-72
2022/06/27 04:02:16;;;;;;;1.38;0.75;;;;;;;19.55;97.61;96048.03;5050023;28;20653;-72
2022/06/27 04:04:43;;;;;;;1.70;0.70;;;;;;;19.53;98.25;96042.13;5050014;28;20244;-72
2022/06/27 04:07:09;;;;;;;1.27;0.80;;;;;;;19.66;98.46;96040.00;5050170;28;20201;-72
2022/06/27 04:09:37;;;;;;;3.40;1.02;;;;;;;19.55;98.66;96044.56;5050215;28;20251;-72
2022/06/27 04:12:04;;;;;;;4.70;0.70;;;;;;;19.75;95.55;96057.28;5050336;28;20201;-72
2022/06/27 04:14:31;;;;;;;4.72;0.80;;;;;;;19.38;97.66;96046.34;5050127;28;20221;-71
2022/06/27 04:16:57;;;;;;;1.25;0.88;;;;;;;19.43;100.00;96038.44;5049854;28;20664;-72
2022/06/27 04:19:24;;;;;;;1.00;0.80;;;;;;;19.54;100.00;96037.59;5048959;28;20201;-72
2022/06/27 04:21:50;;;;;;;3.20;0.82;;;;;;;19.58;99.41;96037.69;5049940;28;20212;-72
2022/06/27 04:24:17;;;;;;;1.20;0.95;;;;;;;19.78;98.77;96032.75;5049677;28;20217;-72
2022/06/27 04:26:45;;;;;;;2.72;0.80;;;;;;;20.09;97.45;96037.66;5050079;28;20212;-71
2022/06/27 04:29:11;;;;;;;1.52;0.82;;;;;;;19.84;99.32;96045.16;5049990;28;20197;-72
2022/06/27 04:31:38;;;;;;;1.10;0.80;;;;;;;19.81;99.92;96031.47;5049846;28;20233;-72
2022/06/27 04:34:04;;;;;;;2.92;0.82;;;;;;;19.96;99.25;96039.78;5049142;28;20266;-72
2022/06/27 04:36:31;;;;;;;1.17;0.90;;;;;;;19.80;100.00;96035.19;5049714;28;20198;-72
2022/06/27 04:38:58;;;;;;;4.47;0.65;;;;;;;19.59;100.00;96033.97;5050229;28;20604;-71
2022/06/27 04:41:26;;;;;;;1.80;0.60;;;;;;;19.51;100.00;96033.53;5050414;28;20692;-70
2022/06/27 04:43:54;;;;;;;2.03;0.77;;;;;;;19.63;100.00;96040.47;5049651;28;20713;-71
2022/06/27 04:46:21;;;;;;;0.70;0.60;;;;;;;19.70;100.00;96051.84;5049689;28;20312;-71
2022/06/27 04:48:48;;;;;;;3.80;0.80;;;;;;;19.96;100.00;96062.03;5049333;28;20200;-71
2022/06/27 04:51:14;;;;;;;2.38;0.60;;;;;;;20.03;99.08;96054.66;5049990;28;20208;-72
2022/06/27 04:53:43;;;;;;;0.52;0.52;;;;;;;19.84;99.78;96045.16;5049113;28;20229;-72
2022/06/27 04:56:10;;;;;;;1.52;0.80;;;;;;;19.87;100.00;96050.03;5050161;28;20291;-70
2022/06/27 04:58:36;;;;;;;0.63;0.47;;;;;;;19.99;99.62;96055.38;5049252;28;20649;-72
2022/06/27 05:01:04;;;;;;;2.08;0.70;;;;;;;20.48;98.06;96044.75;5049641;28;20205;-72
2022/06/27 05:03:31;;;;;;;2.85;0.60;;;;;;;20.51;98.55;96049.63;5048294;28;20224;-70
2022/06/27 05:05:57;;;;;;;1.85;0.63;;;;;;;20.58;97.25;96055.63;5049736;28;20217;-72
2022/06/27 05:08:24;;;;;;;0.80;0.60;;;;;;;20.67;96.15;96059.53;5049537;28;20204;-72
2022/06/27 05:10:50;;;;;;;0.60;0.60;;;;;;;20.70;95.08;96053.72;5049157;28;20680;-72
2022/06/27 05:13:16;;;;;;;0.63;0.52;;;;;;;20.95;95.25;96042.34;5049122;28;20224;-72
2022/06/27 05:15:43;;;;;;;4.22;0.60;;;;;;;21.13;93.69;96047.44;5048474;28;20212;-71
2022/06/27 05:18:14;;;;;;;0.82;0.50;;;;;;;21.22;92.98;96056.69;5050182;28;20208;-70
2022/06/27 05:20:42;;;;;;;0.60;0.40;;;;;;;21.03;92.70;96055.31;5048455;28;20223;-71
2022/06/27 05:23:08;;;;;;;1.40;0.52;;;;;;;21.29;93.34;96057.31;5048879;28;20209;-71
2022/06/27 05:25:36;;;;;;;1.45;0.50;;;;;;;21.35;91.74;96053.63;5048358;28;20224;-68
2022/06/27 05:28:03;;;;;;;2.08;0.55;;;;;;;21.16;91.49;96054.97;5048503;28;20201;-69
2022/06/27 05:30:30;;;;;;;0.60;0.50;;;;;;;21.29;90.95;96064.53;5048224;28;20200;-69
2022/06/27 05:32:57;;;;;;;1.60;0.57;;;;;;;21.27;90.68;96062.13;5048168;28;20212;-69
2022/06/27 05:35:26;;;;;;;0.50;0.40;;;;;;;21.58;88.58;96058.81;5047913;28;20548;-69
2022/06/27 05:37:53;;;;;;;1.05;0.50;;;;;;;21.09;90.36;96059.72;5047354;28;20205;-69
2022/06/27 05:40:21;;;;;;;0.50;0.40;;;;;;;21.24;89.52;96061.78;5048712;28;20197;-70
2022/06/27 05:42:48;;;;;;;1.55;0.40;;;;;;;21.03;90.36;96062.56;5048706;28;20207;-70
2022/06/27 05:45:15;;;;;;;0.55;0.40;;;;;;;21.04;90.97;96054.28;5048269;28;20229;-70
2022/06/27 05:47:42;;;;;;;1.25;0.60;;;;;;;21.12;90.71;96053.06;5049137;28;20205;-70
2022/06/27 05:50:09;;;;;;;0.70;0.50;;;;;;;21.44;89.20;96057.53;5048713;28;20208;-68
2022/06/27 05:52:39;;;;;;;2.17;0.68;;;;;;;21.81;89.35;96066.63;5048613;28;20193;-69
2022/06/27 05:55:06;;;;;;;4.38;0.55;;;;;;;21.92;86.67;96065.66;5048104;28;20228;-69
2022/06/27 05:57:33;;;;;;;1.35;0.60;;;;;;;22.08;86.89;96058.34;5048517;28;20207;-70
2022/06/27 06:00:00;;;;;;;0.40;0.40;;;;;;;22.07;86.70;96055.91;5048733;28;20201;-69
2022/06/27 06:02:27;;;;;;;1.27;0.50;;;;;;;22.39;84.75;96059.47;5048179;28;20286;-69
2022/06/27 06:04:54;;;;;;;0.82;0.70;;;;;;;22.61;83.66;96063.72;5047659;28;20225;-69
2022/06/27 06:07:22;;;;;;;0.80;0.40;;;;;;;22.48;83.72;96072.22;5048367;28;20213;-67
2022/06/27 06:09:50;;;;;;;2.08;0.50;;;;;;;22.48;83.40;96069.53;5048249;28;20254;-70
2022/06/27 06:12:18;;;;;;;0.82;0.47;;;;;;;22.43;81.78;96068.66;5045811;28;20677;-69
2022/06/27 06:14:46;;;;;;;1.27;0.50;;;;;;;22.33;82.92;96068.56;5045670;28;20225;-69
2022/06/27 06:17:13;;;;;;;0.85;0.40;;;;;;;22.60;84.60;96075.53;5046389;28;20213;-68
2022/06/27 06:19:40;;;;;;;1.00;0.50;;;;;;;22.48;84.06;96080.28;5045598;28;20250;-69
2022/06/27 06:22:08;;;;;;;4.13;0.50;;;;;;;22.75;82.09;96078.38;5046833;28;20197;-69
2022/06/27 06:24:35;;;;;;;1.15;0.60;;;;;;;22.34;81.92;96076.38;5046240;28;20248;-69
2022/06/27 06:27:03;;;;;;;3.08;0.63;;;;;;;22.49;84.03;96076.53;5048232;28;20221;-69
2022/06/27 06:29:30;;;;;;;0.73;0.55;;;;;;;22.71;82.06;96072.69;5047954;28;20556;-70
2022/06/27 06:31:57;;;;;;;2.47;0.70;;;;;;;22.85;81.05;96067.72;5046634;28;20211;-69
2022/06/27 06:34:24;;;;;;;1.05;0.57;;;;;;;22.72;81.96;96081.53;5047953;28;20217;-70
2022/06/27 06:36:50;;;;;;;0.68;0.40;;;;;;;22.84;80.57;96088.38;5047294;28;20213;-68
2022/06/27 06:39:17;;;;;;;1.15;0.60;;;;;;;22.47;80.49;96088.59;5048173;28;20197;-69
2022/06/27 06:41:45;;;;;;;2.55;0.60;;;;;;;22.60;80.87;96086.28;5040704;28;20209;-68
2022/06/27 06:44:12;;;;;;;4.07;0.63;;;;;;;22.53;81.06;96093.75;5034655;28;20258;-70
2022/06/27 06:46:39;;;;;;;0.70;0.60;;;;;;;22.20;82.22;96085.06;5042908;28;20213;-68
2022/06/27 06:49:06;;;;;;;0.57;0.50;;;;;;;22.61;80.90;96098.66;5046111;28;20209;-69
2022/06/27 06:51:35;;;;;;;1.48;0.50;;;;;;;22.90;79.55;96091.94;5045438;28;20213;-68
2022/06/27 06:54:03;;;;;;;0.55;0.55;;;;;;;22.84;79.90;96099.13;5045604;28;20270;-68
2022/06/27 06:56:30;;;;;;;0.50;0.50;;;;;;;23.27;78.37;96098.16;5044121;28;20228;-69
2022/06/27 06:58:57;;;;;;;0.43;0.40;;;;;;;23.42;79.17;96101.75;5046033;28;20575;-69
2022/06/27 07:01:27;;;;;;;1.63;0.60;;;;;;;23.53;78.61;96101.53;5047812;28;20281;-69
2022/06/27 07:03:54;;;;;;;1.90;0.50;;;;;;;23.32;76.86;96089.06;5047383;28;20227;-69
2022/06/27 07:06:25;;;;;;;0.40;0.40;;;;;;;23.21;80.09;96077.69;5047428;28;20719;-69
2022/06/27 07:08:53;;;;;;;3.15;0.52;;;;;;;23.29;79.34;96090.63;5047520;28;20292;-69
2022/06/27 07:11:21;;;;;;;0.95;0.40;;;;;;;23.38;79.61;96096.09;5047197;28;20538;-69
2022/06/27 07:13:48;;;;;;;0.65;0.50;;;;;;;23.25;81.95;96102.97;5047624;28;20248;-69
2022/06/27 07:16:15;;;;;;;1.80;0.82;;;;;;;23.53;80.27;96106.13;5050972;28;20202;-69
2022/06/27 07:18:44;;;;;;;1.52;0.50;;;;;;;23.35;78.23;96107.34;5051035;28;20211;-69
2022/06/27 07:21:13;;;;;;;0.60;0.50;;;;;;;23.56;77.40;96098.34;5049127;28;20225;-69
2022/06/27 07:23:40;;;;;;;0.93;0.52;;;;;;;23.52;80.75;96099.94;5048654;28;20217;-69
2022/06/27 07:26:07;;;;;;;0.93;0.50;;;;;;;23.77;77.01;96097.41;5049516;28;20217;-69
2022/06/27 07:28:34;;;;;;;1.27;0.50;;;;;;;23.92;77.23;96102.03;5049398;28;20216;-69
2022/06/27 07:31:01;;;;;;;1.42;0.65;;;;;;;23.78;77.58;96090.97;5040505;28;20766;-69
2022/06/27 07:33:28;;;;;;;1.85;0.52;;;;;;;23.85;75.47;96088.03;5038037;28;20232;-69
2022/06/27 07:35:56;;;;;;;1.02;0.70;;;;;;;23.92;77.58;96080.50;5050378;28;20197;-69
2022/06/27 07:38:23;;;;;;;1.45;0.70;;;;;;;23.98;76.28;96083.78;5049753;28;20212;-69
2022/06/27 07:40:50;;;;;;;1.80;0.73;;;;;;;24.17;76.45;96073.34;5051107;28;20213;-69
2022/06/27 07:43:17;;;;;;;0.45;0.45;;;;;;;24.28;74.68;96073.09;5050448;28;20220;-69
2022/06/27 07:45:44;;;;;;;2.00;0.60;;;;;;;24.23;78.60;96070.38;5050864;28;20261;-70
2022/06/27 07:48:12;;;;;;;0.52;0.50;;;;;;;24.45;76.08;96072.91;5050625;28;20198;-70
2022/06/27 07:50:39;;;;;;;0.77;0.70;;;;;;;24.44;73.94;96063.19;5050799;28;20201;-65
2022/06/27 07:53:13;;;;;;;2.15;0.93;;;;;;;24.73;73.00;96060.56;5050462;28;20197;-70
2022/06/27 07:55:40;;;;;;;2.85;0.77;;;;;;;24.39;74.07;96063.19;5050626;28;20283;-70
2022/06/27 07:58:08;;;;;;;1.52;0.77;;;;;;;24.44;73.08;96072.09;5050558;28;20201;-69
2022/06/27 08:00:34;;;;;;;1.55;0.70;;;;;;;24.33;75.44;96072.31;5050081;28;20983;-69
2022/06/27 08:03:36;;;;;;;1.50;0.90;;;;;;;24.20;74.81;96078.22;5048865;28;20198;-68
2022/06/27 08:05:48;;;;;;;1.17;0.80;;;;;;;24.59;74.13;96072.94;5048958;28;20837;-68
2022/06/27 08:08:16;;;;;;;1.83;0.70;;;;;;;24.72;74.46;96075.09;5048508;28;20571;-68
2022/06/27 08:10:43;;;;;;;2.25;0.77;;;;;;;24.59;72.62;96078.31;5049966;28;20215;-69
2022/06/27 08:13:09;;;;;;;1.98;0.90;;;;;;;24.48;71.31;96077.75;5049955;28;20582;-69
2022/06/27 08:15:36;;;;;;;1.98;0.80;;;;;;;24.81;71.35;96086.97;5050399;28;20197;-69
2022/06/27 08:18:04;;;;;;;3.22;0.80;;;;;;;25.04;75.48;96094.53;5050730;28;20205;-69
2022/06/27 08:20:30;;;;;;;1.17;0.70;;;;;;;25.29;73.75;96097.22;5049342;28;20205;-70
2022/06/27 08:22:57;;;;;;;2.08;0.70;;;;;;;25.34;69.21;96098.06;5049985;28;20201;-67
2022/06/27 08:25:25;;;;;;;0.82;0.60;;;;;;;25.39;72.55;96089.97;5038302;28;20569;-69
2022/06/27 08:27:51;;;;;;;1.10;0.60;;;;;;;25.14;71.10;96099.13;5036492;28;20216;-69
2022/06/27 08:30:18;;;;;;;0.80;0.60;;;;;;;25.35;70.43;96104.25;5036751;28;20687;-69
2022/06/27 08:32:44;;;;;;;0.60;0.60;;;;;;;25.37;77.09;96094.81;5036014;28;20205;-69
2022/06/27 08:35:11;;;;;;;0.88;0.68;;;;;;;25.43;71.01;96096.44;5037336;28;20221;-69
2022/06/27 08:37:38;;;;;;;0.68;0.68;;;;;;;25.42;70.83;96104.75;5037646;28;20197;-70
2022/06/27 08:40:07;;;;;;;2.88;0.85;;;;;;;25.54;72.04;96108.00;5041054;28;20201;-70
2022/06/27 08:42:35;;;;;;;1.95;0.70;;;;;;;25.36;70.98;96117.47;5049004;28;20289;-69
2022/06/27 08:45:03;;;;;;;2.05;0.63;;;;;;;25.37;73.14;96118.28;5048396;28;20217;-69
2022/06/27 08:47:30;;;;;;;1.83;0.90;;;;;;;25.38;74.71;96114.50;5049520;28;20229;-69
2022/06/27 08:49:57;;;;;;;1.33;0.73;;;;;;;25.06;73.70;96105.88;5044646;28;20207;-69
2022/06/27 08:52:24;;;;;;;0.70;0.70;;;;;;;25.34;75.05;96110.72;5037003;28;20206;-68
2022/06/27 08:54:51;;;;;;;1.08;0.80;;;;;;;25.28;73.20;96114.53;5044178;28;20308;-69
2022/06/27 08:57:19;;;;;;;0.95;0.70;;;;;;;25.54;72.14;96103.41;5049997;28;20197;-69
2022/06/27 08:59:48;;;;;;;1.10;0.90;;;;;;;25.87;73.61;96109.00;5049127;28;20209;-69
2022/06/27 09:02:19;;;;;;;0.80;0.80;;;;;;;26.07;71.16;96102.72;5048402;28;20232;-69
2022/06/27 09:04:59;;;;;;;3.65;1.02;;;;;;;25.88;69.25;96112.53;5049060;28;20229;-70
2022/06/27 09:07:48;;;;;;;4.30;1.85;;;;;;;25.90;69.33;96113.88;5048628;28;20224;-70
2022/06/27 09:10:26;;;;;;;1.42;1.25;;;;;;;25.97;70.00;96117.09;5049041;28;20215;-70
2022/06/27 09:12:59;;;;;;;1.33;0.88;;;;;;;26.01;68.44;96120.84;5049167;28;20249;-69
2022/06/27 09:15:29;;;;;;;3.65;0.80;;;;;;;25.95;70.89;96115.75;5048923;28;20599;-70
2022/06/27 09:18:01;;;;;;;1.50;0.90;;;;;;;25.99;70.42;96112.25;5049731;28;20206;-70
2022/06/27 09:20:48;;;;;;;3.38;0.75;;;;;;;26.48;71.11;96115.81;5047860;28;20205;-70
2022/06/27 09:23:31;;;;;;;2.42;1.00;;;;;;;26.39;72.31;96122.91;5049014;28;20225;-70
2022/06/27 09:25:59;;;;;;;2.75;1.42;;;;;;;25.88;73.46;96121.44;5048495;28;20203;-70
2022/06/27 09:28:42;;;;;;;2.80;1.10;;;;;;;26.08;74.44;96118.69;5049413;28;20609;-70
2022/06/27 09:31:12;;;;;;;5.40;1.20;;;;;;;25.96;73.41;96120.06;5048284;28;20726;-70
2022/06/27 09:33:40;;;;;;;2.25;1.10;;;;;;;25.90;74.75;96127.38;5048533;28;20384;-70
2022/06/27 09:36:09;;;;;;;1.15;0.80;;;;;;;26.19;72.27;96138.34;5048121;28;20261;-71
2022/06/27 09:38:40;;;;;;;2.00;1.05;;;;;;;26.41;73.62;96131.53;5048315;28;20198;-70
2022/06/27 09:41:11;;;;;;;3.03;0.90;;;;;;;26.49;71.92;96128.25;5048312;28;20201;-70
2022/06/27 09:43:44;;;;;;;4.15;1.00;;;;;;;26.67;71.34;96135.72;5044194;28;20224;-71
2022/06/27 09:46:14;;;;;;;2.30;1.00;;;;;;;26.09;72.97;96133.78;5036110;28;20225;-71
2022/06/27 09:48:47;;;;;;;1.67;1.00;;;;;;;25.48;72.85;96141.47;5042959;28;20654;-70
2022/06/27 09:51:16;;;;;;;3.70;0.90;;;;;;;25.94;74.32;96128.44;5048324;28;20278;-71
2022/06/27 09:53:47;;;;;;;1.17;0.73;;;;;;;26.27;72.01;96122.38;5047845;28;20229;-70
2022/06/27 09:56:16;;;;;;;2.95;1.13;;;;;;;26.45;69.58;96132.56;5047408;28;20823;-70
2022/06/27 09:58:43;;;;;;;1.02;0.90;;;;;;;26.32;70.41;96130.44;5040400;28;20205;-70
2022/06/27 10:01:12;;;;;;;3.13;0.90;;;;;;;26.13;70.85;96118.66;5035884;28;20670;-70
2022/06/27 10:03:40;;;;;;;3.75;0.95;;;;;;;26.14;69.78;96122.97;5043902;28;20740;-70
2022/06/27 10:06:07;;;;;;;1.05;0.90;;;;;;;26.11;70.95;96126.22;5048391;28;21062;-70
2022/06/27 10:08:36;;;;;;;0.95;0.70;;;;;;;25.59;71.75;96129.59;5047763;28;20206;-70
2022/06/27 10:11:08;;;;;;;1.63;1.02;;;;;;;25.60;73.05;96129.31;5048372;28;20562;-69
2022/06/27 10:13:37;;;;;;;2.80;1.10;;;;;;;26.14;71.36;96133.75;5047626;28;20324;-71
2022/06/27 10:16:10;;;;;;;2.58;0.80;;;;;;;25.90;72.90;96140.06;5047442;28;20197;-71
2022/06/27 10:19:00;;;;;;;1.23;0.90;;;;;;;25.78;71.62;96136.06;5047163;28;20243;-70
2022/06/27 10:21:29;;;;;;;0.80;0.80;;;;;;;26.19;72.37;96141.84;5047801;28;20209;-70
2022/06/27 10:24:32;;;;;;;2.28;0.90;;;;;;;26.56;69.52;96155.78;5046531;28;20225;-70
2022/06/27 10:27:01;;;;;;;1.88;1.10;;;;;;;25.86;71.50;96155.19;5047842;28;20340;-70
2022/06/27 10:29:45;;;;;;;2.28;1.17;;;;;;;25.82;72.48;96164.94;5047835;28;20201;-69
2022/06/27 10:32:40;;;;;;;1.10;0.80;;;;;;;26.46;69.19;96162.06;5046317;28;20206;-71
2022/06/27 10:35:10;;;;;;;1.80;0.90;;;;;;;26.00;67.70;96167.84;5034550;28;20345;-69
2022/06/27 10:37:39;;;;;;;3.42;0.80;;;;;;;26.20;69.50;96162.38;5041968;28;20287;-69
2022/06/27 10:40:52;;;;;;;1.10;1.00;;;;;;;26.73;68.05;96156.22;5047251;28;20205;-69
2022/06/27 10:43:45;;;;;;;0.88;0.77;;;;;;;26.65;66.50;96164.94;5046857;28;20230;-68
2022/06/27 10:46:43;;;;;;;4.78;0.75;;;;;;;26.66;64.23;96178.16;5047351;28;20232;-69
2022/06/27 10:49:21;;;;;;;1.00;0.75;;;;;;;26.71;63.12;96182.75;5048461;28;20205;-69
2022/06/27 10:51:50;;;;;;;0.65;0.60;;;;;;;27.01;64.18;96178.00;5039922;28;20233;-69
2022/06/27 10:54:17;;;;;;;2.22;0.98;;;;;;;26.75;64.97;96179.19;5044620;28;20221;-69
2022/06/27 10:56:46;;;;;;;1.92;0.65;;;;;;;26.85;63.88;96178.34;5051145;28;20266;-70
2022/06/27 10:59:59;;;;;;;0.80;0.60;;;;;;;26.99;62.64;96193.69;5051772;28;20201;-70
2022/06/27 11:02:30;;;;;;;1.55;0.85;;;;;;;26.93;62.03;96191.28;5051094;28;20197;-70
2022/06/27 11:04:57;;;;;;;3.05;0.73;;;;;;;26.96;63.02;96196.16;5051106;28;20239;-70
2022/06/27 11:07:26;;;;;;;3.40;1.00;;;;;;;27.25;62.10;96198.66;5051132;28;20572;-69
2022/06/27 11:09:53;;;;;;;1.73;0.70;;;;;;;27.68;62.29;96197.00;5050787;28;20216;-70
2022/06/27 11:12:23;;;;;;;2.25;0.65;;;;;;;27.23;63.10;96205.47;5051045;28;20287;-70
2022/06/27 11:14:50;;;;;;;2.58;0.77;;;;;;;27.20;64.52;96222.22;5051274;28;20307;-70
2022/06/27 11:17:31;;;;;;;1.02;0.70;;;;;;;26.65;66.31;96213.59;5051446;28;20227;-70
2022/06/27 11:20:31;;;;;;;1.48;0.65;;;;;;;26.39;66.69;96230.16;5045947;28;20201;-70
2022/06/27 11:23:01;;;;;;;1.17;0.77;;;;;;;26.46;66.59;96242.31;5038728;28;20209;-70
2022/06/27 11:25:29;;;;;;;1.08;0.70;;;;;;;26.08;67.75;96245.63;5048007;28;20224;-70
2022/06/27 11:27:57;;;;;;;2.60;0.80;;;;;;;25.92;68.65;96252.13;5049681;28;20224;-70
2022/06/27 11:33:19;;;;;;;1.02;0.70;;;;;;;26.23;68.42;96250.19;5049018;28;21201;-71
2022/06/27 11:35:46;;;;;;;1.25;1.00;;;;;;;26.05;68.12;96259.66;5050588;28;20224;-70
2022/06/27 11:38:21;;;;;;;1.40;0.90;;;;;;;25.61;68.20;96260.50;5051348;28;20201;-68
2022/06/27 11:41:00;;;;;;;1.23;0.80;;;;;;;25.22;68.91;96280.13;5049043;28;20202;-69
2022/06/27 11:43:58;;;;;;;1.20;0.93;;;;;;;25.53;68.65;96271.00;5050425;28;20229;-70
2022/06/27 11:46:27;;;;;;;4.28;0.98;;;;;;;25.77;67.66;96280.22;5049940;28;20209;-70
2022/06/27 11:48:56;;;;;;;2.08;0.73;;;;;;;25.92;65.45;96276.44;5045121;28;20206;-69
2022/06/27 11:51:25;;;;;;;2.38;1.00;;;;;;;26.00;66.03;96267.78;5038393;28;20293;-70